createdAt,value
2024-02-17T00:01:15.329Z,81.09
2024-02-17T00:03:48.948Z,81.15
2024-02-17T00:06:21.679Z,81.16
2024-02-17T00:08:53.431Z,81.02
2024-02-17T00:11:25.856Z,81.18
2024-02-17T00:13:57.710Z,81.13
2024-02-17T00:16:29.718Z,81.11
2024-02-17T00:19:00.056Z,81.12
2024-02-17T00:21:32.175Z,81.15
2024-02-17T00:24:04.045Z,81.10
2024-02-17T00:26:35.874Z,81.15
2024-02-17T00:29:07.659Z,81.09
2024-02-17T00:31:39.299Z,81.08
2024-02-17T00:34:11.102Z,81.08
2024-02-17T00:36:43.217Z,81.06
2024-02-17T00:39:15.033Z,81.15
2024-02-17T00:41:47.094Z,80.92
2024-02-17T00:44:19.035Z,81.05
2024-02-17T00:46:50.794Z,81.09
2024-02-17T00:49:22.709Z,81.14
2024-02-17T00:51:52.991Z,81.06
2024-02-17T00:54:24.776Z,81.20
2024-02-17T00:56:56.492Z,81.29
2024-02-17T00:59:28.118Z,81.20
2024-02-17T01:02:01.815Z,81.21
2024-02-17T01:04:33.818Z,81.12
2024-02-17T01:07:04.098Z,81.18
2024-02-17T01:09:36.074Z,81.30
2024-02-17T01:12:08.645Z,81.33
2024-02-17T01:14:40.308Z,81.39
2024-02-17T01:17:12.093Z,81.29
2024-02-17T01:19:43.981Z,81.30
2024-02-17T01:22:14.229Z,81.23
2024-02-17T01:24:46.283Z,81.30
2024-02-17T01:27:16.449Z,81.41
2024-02-17T01:29:48.169Z,81.36
2024-02-17T01:32:19.955Z,81.27
2024-02-17T01:34:51.691Z,81.36
2024-02-17T01:37:23.546Z,81.39
2024-02-17T01:39:55.453Z,81.46
2024-02-17T01:42:27.198Z,81.42
2024-02-17T01:44:58.908Z,81.46
2024-02-17T01:47:31.765Z,81.56
2024-02-17T01:50:03.822Z,81.75
2024-02-17T01:52:36.905Z,81.94
2024-02-17T01:55:11.177Z,82.10
2024-02-17T01:57:46.624Z,82.08
2024-02-17T02:00:20.661Z,82.15
2024-02-17T02:02:52.863Z,81.89
2024-02-17T02:05:25.122Z,81.95
2024-02-17T02:07:57.352Z,81.94
2024-02-17T02:10:29.194Z,82.09
2024-02-17T02:13:00.997Z,81.95
2024-02-17T02:15:37.199Z,82.08
2024-02-17T02:18:17.410Z,81.98
2024-02-17T02:20:47.883Z,81.87
2024-02-17T02:23:20.112Z,81.93
2024-02-17T02:25:55.312Z,81.89
2024-02-17T02:28:28.103Z,81.92
2024-02-17T02:31:00.476Z,81.97
2024-02-17T02:33:32.416Z,82.05
2024-02-17T02:36:04.479Z,82.19
2024-02-17T02:38:34.751Z,82.01
2024-02-17T02:41:06.854Z,82.29
2024-02-17T02:43:38.988Z,82.30
2024-02-17T02:46:11.380Z,82.28
2024-02-17T02:48:43.305Z,82.22
2024-02-17T02:51:16.799Z,82.24
2024-02-17T02:53:48.568Z,82.26
2024-02-17T02:56:20.299Z,82.30
2024-02-17T02:58:52.075Z,82.38
2024-02-17T03:01:23.849Z,82.35
2024-02-17T03:03:55.679Z,82.34
2024-02-17T03:06:28.606Z,82.36
2024-02-17T03:09:00.458Z,82.35
2024-02-17T03:11:32.282Z,82.40
2024-02-17T03:14:03.960Z,82.42
2024-02-17T03:16:35.727Z,82.45
2024-02-17T03:19:07.494Z,82.43
2024-02-17T03:21:41.115Z,82.35
2024-02-17T03:24:13.103Z,82.37
2024-02-17T03:26:44.787Z,82.39
2024-02-17T03:29:16.541Z,82.38
2024-02-17T03:31:48.749Z,82.36
2024-02-17T03:34:20.568Z,82.47
2024-02-17T03:36:52.323Z,82.38
2024-02-17T03:39:24.152Z,82.35
2024-02-17T03:41:56.524Z,82.25
2024-02-17T03:44:28.373Z,82.21
2024-02-17T03:47:00.170Z,82.33
2024-02-17T03:49:34.289Z,82.28
2024-02-17T03:52:06.283Z,82.23
2024-02-17T03:54:38.050Z,82.32
2024-02-17T03:57:09.913Z,82.39
2024-02-17T03:59:41.540Z,82.34
2024-02-17T04:02:13.726Z,82.41
2024-02-17T04:04:45.452Z,82.44
2024-02-17T04:07:17.271Z,82.50
2024-02-17T04:09:49.122Z,82.56
2024-02-17T04:12:20.825Z,82.49
2024-02-17T04:14:52.619Z,82.55
2024-02-17T04:17:24.498Z,82.54
2024-02-17T04:19:56.228Z,82.59
2024-02-17T04:22:28.010Z,82.59
2024-02-17T04:24:59.730Z,82.65
2024-02-17T04:27:31.640Z,82.65
2024-02-17T04:30:04.007Z,82.67
2024-02-17T04:32:35.921Z,82.68
2024-02-17T04:35:10.363Z,82.57
2024-02-17T04:37:42.139Z,82.55
2024-02-17T04:40:15.201Z,82.64
2024-02-17T04:42:47.199Z,82.56
2024-02-17T04:45:19.068Z,82.60
2024-02-17T04:47:50.809Z,82.59
2024-02-17T04:50:22.755Z,82.48
2024-02-17T04:52:54.462Z,82.55
2024-02-17T04:55:27.589Z,82.64
2024-02-17T04:57:59.737Z,82.67
2024-02-17T05:00:31.624Z,82.61
2024-02-17T05:03:04.406Z,82.73
2024-02-17T05:05:36.176Z,82.87
2024-02-17T05:08:08.985Z,82.87
2024-02-17T05:10:41.700Z,82.91
2024-02-17T05:13:13.506Z,82.91
2024-02-17T05:15:45.514Z,82.82
2024-02-17T05:18:15.938Z,82.92
2024-02-17T05:20:48.750Z,82.85
2024-02-17T05:23:20.574Z,82.80
2024-02-17T05:25:52.859Z,82.75
2024-02-17T05:28:23.145Z,82.82
2024-02-17T05:30:56.294Z,82.92
2024-02-17T05:33:28.772Z,83.13
2024-02-17T05:36:00.592Z,82.99
2024-02-17T05:38:32.213Z,82.93
2024-02-17T05:41:03.983Z,83.10
2024-02-17T05:43:35.615Z,83.20
2024-02-17T05:46:07.502Z,83.34
2024-02-17T05:48:39.383Z,83.44
2024-02-17T05:51:11.155Z,83.32
2024-02-17T05:53:42.881Z,83.15
2024-02-17T05:56:14.686Z,83.06
2024-02-17T05:58:47.016Z,83.06
2024-02-17T06:01:18.800Z,83.07
2024-02-17T06:03:50.780Z,83.04
2024-02-17T06:06:22.585Z,82.95
2024-02-17T06:08:54.295Z,83.03
2024-02-17T06:11:25.975Z,83.07
2024-02-17T06:13:58.323Z,83.10
2024-02-17T06:16:31.845Z,83.11
2024-02-17T06:19:20.896Z,83.14
2024-02-17T06:21:52.698Z,83.19
2024-02-17T06:24:24.393Z,83.14
2024-02-17T06:26:56.058Z,83.10
2024-02-17T06:29:27.768Z,83.00
2024-02-17T06:31:59.435Z,83.20
2024-02-17T06:34:31.168Z,83.18
2024-02-17T06:37:05.090Z,83.03
2024-02-17T06:39:36.843Z,83.03
2024-02-17T06:42:09.000Z,83.10
2024-02-17T06:44:39.162Z,83.16
2024-02-17T06:47:10.839Z,83.03
2024-02-17T06:49:42.640Z,83.15
2024-02-17T06:52:14.307Z,83.11
2024-02-17T06:54:46.057Z,83.11
2024-02-17T06:57:17.848Z,83.10
2024-02-17T06:59:49.634Z,83.06
2024-02-17T07:02:25.247Z,83.00
2024-02-17T07:04:58.015Z,83.00
2024-02-17T07:07:29.688Z,83.00
2024-02-17T07:10:05.229Z,82.92
2024-02-17T07:12:39.216Z,83.23
2024-02-17T07:15:12.318Z,83.29
2024-02-17T07:17:44.713Z,83.20
2024-02-17T07:20:16.678Z,83.22
2024-02-17T07:22:48.396Z,83.16
2024-02-17T07:25:20.137Z,83.07
2024-02-17T07:27:51.984Z,83.22
2024-02-17T07:30:23.817Z,83.29
2024-02-17T07:32:55.624Z,83.20
2024-02-17T07:35:27.370Z,83.51
2024-02-17T07:37:58.968Z,83.53
2024-02-17T07:40:30.691Z,83.74
2024-02-17T07:43:02.361Z,83.79
2024-02-17T07:45:34.495Z,83.61
2024-02-17T07:48:07.103Z,83.47
2024-02-17T07:50:38.884Z,83.47
2024-02-17T07:53:10.579Z,83.35
2024-02-17T07:55:42.325Z,83.59
2024-02-17T07:58:14.043Z,83.43
2024-02-17T08:00:45.750Z,83.31
2024-02-17T08:03:18.826Z,83.35
2024-02-17T08:05:52.839Z,83.24
2024-02-17T08:08:26.082Z,83.28
2024-02-17T08:10:58.808Z,83.57
2024-02-17T08:13:31.562Z,83.57
2024-02-17T08:16:03.668Z,83.72
2024-02-17T08:18:35.593Z,83.58
2024-02-17T08:21:07.910Z,83.46
2024-02-17T08:23:39.568Z,83.31
2024-02-17T08:26:13.185Z,83.30
2024-02-17T08:28:45.218Z,83.34
2024-02-17T08:31:15.478Z,83.34
2024-02-17T08:33:47.307Z,83.18
2024-02-17T08:36:20.610Z,83.24
2024-02-17T08:38:54.254Z,83.07
2024-02-17T08:41:26.721Z,83.11
2024-02-17T08:43:58.616Z,83.17
2024-02-17T08:46:30.332Z,83.02
2024-02-17T08:49:02.119Z,83.05
2024-02-17T08:51:33.861Z,83.23
2024-02-17T08:54:05.958Z,83.47
2024-02-17T08:56:36.085Z,83.38
2024-02-17T08:59:07.721Z,83.41
2024-02-17T09:01:39.445Z,83.28
2024-02-17T09:04:11.213Z,83.07
2024-02-17T09:06:43.114Z,83.27
2024-02-17T09:09:15.507Z,83.11
2024-02-17T09:11:47.408Z,81.83
2024-02-17T09:14:19.183Z,81.89
2024-02-17T09:16:50.972Z,81.92
2024-02-17T09:19:22.942Z,81.67
2024-02-17T09:21:53.306Z,81.97
2024-02-17T09:24:26.644Z,81.78
2024-02-17T09:27:01.601Z,81.40
2024-02-17T09:29:34.213Z,81.30
2024-02-17T09:32:08.044Z,81.17
2024-02-17T09:34:40.769Z,81.24
2024-02-17T09:37:15.184Z,81.18
2024-02-17T09:39:53.173Z,81.39
2024-02-17T09:42:25.088Z,81.51
2024-02-17T09:44:56.882Z,81.40
2024-02-17T09:47:38.119Z,81.38
2024-02-17T09:54:14.962Z,81.21
2024-02-17T09:56:55.243Z,80.75
2024-02-17T09:59:28.075Z,80.54
2024-02-17T10:01:59.968Z,80.55
2024-02-17T10:04:30.303Z,80.24
2024-02-17T10:07:07.173Z,80.07
2024-02-17T10:09:39.144Z,79.67
2024-02-17T10:12:11.611Z,79.41
2024-02-17T10:14:44.583Z,79.61
2024-02-17T10:17:16.418Z,79.72
2024-02-17T10:19:46.875Z,79.47
2024-02-17T10:22:18.852Z,79.00
2024-02-17T10:24:49.096Z,79.06
2024-02-17T10:27:25.222Z,79.32
2024-02-17T10:30:15.514Z,78.88
2024-02-17T10:32:51.582Z,78.68
2024-02-17T10:35:25.820Z,78.36
2024-02-17T10:38:00.060Z,78.27
2024-02-17T10:40:33.557Z,78.33
2024-02-17T10:43:06.389Z,77.94
2024-02-17T10:45:39.421Z,77.64
2024-02-17T10:48:13.712Z,77.55
2024-02-17T10:50:51.821Z,76.74
2024-02-17T10:53:29.916Z,77.23
2024-02-17T10:56:06.150Z,77.83
2024-02-17T10:58:41.406Z,77.44
2024-02-17T11:01:14.905Z,76.79
2024-02-17T11:03:48.953Z,76.62
2024-02-17T11:06:21.896Z,76.92
2024-02-17T11:08:53.985Z,76.98
2024-02-17T11:11:28.108Z,76.61
2024-02-17T11:14:01.034Z,76.85
2024-02-17T11:16:38.030Z,76.41
2024-02-17T11:19:13.978Z,76.45
2024-02-17T11:21:48.041Z,76.52
2024-02-17T11:24:22.054Z,76.48
2024-02-17T11:26:55.361Z,76.29
2024-02-17T11:29:35.753Z,75.97
2024-02-17T11:32:08.546Z,75.70
2024-02-17T11:34:42.124Z,75.46
2024-02-17T11:37:15.216Z,75.07
2024-02-17T11:39:49.002Z,74.96
2024-02-17T11:42:21.568Z,75.03
2024-02-17T11:44:57.003Z,74.55
2024-02-17T11:47:31.662Z,74.90
2024-02-17T11:50:12.015Z,74.65
2024-02-17T11:52:43.969Z,74.61
2024-02-17T11:55:16.410Z,74.56
2024-02-17T11:57:48.506Z,74.62
2024-02-17T12:00:20.660Z,74.60
2024-02-17T12:02:53.952Z,74.54
2024-02-17T12:05:26.434Z,73.72
2024-02-17T12:07:58.462Z,73.54
2024-02-17T12:10:30.760Z,72.66
2024-02-17T12:13:02.769Z,72.69
2024-02-17T12:15:34.644Z,72.25
2024-02-17T12:18:06.010Z,72.13
2024-02-17T12:20:37.981Z,71.80
2024-02-17T12:23:09.648Z,71.84
2024-02-17T12:25:42.368Z,71.27
2024-02-17T12:28:15.450Z,71.53
2024-02-17T12:30:51.994Z,71.19
2024-02-17T12:33:23.922Z,70.71
2024-02-17T12:35:56.773Z,70.77
2024-02-17T12:38:29.035Z,71.13
2024-02-17T12:41:04.816Z,71.05
2024-02-17T12:43:41.677Z,71.08
2024-02-17T12:46:25.406Z,70.89
2024-02-17T12:48:59.674Z,70.91
2024-02-17T12:51:34.047Z,70.70
2024-02-17T12:54:06.244Z,70.56
2024-02-17T12:56:38.954Z,70.50
2024-02-17T12:59:11.158Z,70.34
2024-02-17T13:01:43.392Z,70.16
2024-02-17T13:04:15.275Z,70.08
2024-02-17T13:06:47.307Z,69.92
2024-02-17T13:09:19.693Z,69.85
2024-02-17T13:11:52.573Z,69.82
2024-02-17T13:14:27.955Z,69.98
2024-02-17T13:16:59.902Z,69.87
2024-02-17T13:19:32.168Z,69.83
2024-02-17T13:22:05.702Z,69.99
2024-02-17T13:24:37.656Z,69.90
2024-02-17T13:27:10.025Z,69.88
2024-02-17T13:29:41.934Z,69.91
2024-02-17T13:32:12.304Z,70.16
2024-02-17T13:34:44.333Z,69.83
2024-02-17T13:37:16.561Z,70.04
2024-02-17T13:39:48.495Z,69.96
2024-02-17T13:42:20.431Z,70.05
2024-02-17T13:44:52.282Z,70.02
2024-02-17T13:47:22.676Z,70.18
2024-02-17T13:49:54.806Z,70.09
2024-02-17T13:52:26.831Z,70.20
2024-02-17T13:54:57.127Z,70.13
2024-02-17T13:57:29.716Z,70.01
2024-02-17T14:00:02.070Z,69.90
2024-02-17T14:02:37.835Z,70.17
2024-02-17T14:05:10.416Z,70.13
2024-02-17T14:07:42.266Z,70.42
2024-02-17T14:10:12.769Z,70.44
2024-02-17T14:12:44.555Z,70.38
2024-02-17T14:15:16.587Z,70.61
2024-02-17T14:17:48.518Z,70.78
2024-02-17T14:20:20.813Z,70.49
2024-02-17T14:22:52.781Z,70.57
2024-02-17T14:25:24.889Z,70.47
2024-02-17T14:28:06.348Z,70.06
2024-02-17T14:30:44.324Z,70.01
2024-02-17T14:33:14.695Z,69.81
2024-02-17T14:35:47.096Z,69.78
2024-02-17T14:38:19.060Z,69.64
2024-02-17T14:40:51.542Z,69.49
2024-02-17T14:43:24.225Z,69.66
2024-02-17T14:45:56.133Z,69.78
2024-02-17T14:48:26.482Z,69.57
2024-02-17T14:50:59.214Z,69.78
2024-02-17T14:53:31.293Z,69.66
2024-02-17T14:56:04.479Z,69.41
2024-02-17T14:58:37.876Z,69.28
2024-02-17T15:01:11.700Z,69.63
2024-02-17T15:03:44.159Z,69.78
2024-02-17T15:06:16.663Z,69.54
2024-02-17T15:08:48.489Z,69.92
2024-02-17T15:11:21.134Z,69.87
2024-02-17T15:13:53.220Z,69.93
2024-02-17T15:16:25.133Z,70.03
2024-02-17T15:18:56.958Z,70.22
2024-02-17T15:21:27.374Z,70.47
2024-02-17T15:23:59.115Z,70.54
2024-02-17T15:26:30.847Z,70.66
2024-02-17T15:29:02.852Z,70.58
2024-02-17T15:31:34.958Z,70.76
2024-02-17T15:34:06.931Z,70.89
2024-02-17T15:36:38.984Z,71.20
2024-02-17T15:39:10.755Z,70.95
2024-02-17T15:41:41.072Z,70.82
2024-02-17T15:44:13.261Z,70.81
2024-02-17T15:46:45.049Z,70.73
2024-02-17T15:49:17.336Z,70.89
2024-02-17T15:51:49.231Z,71.26
2024-02-17T15:54:21.106Z,71.44
2024-02-17T15:56:56.306Z,71.52
2024-02-17T15:59:28.731Z,71.80
2024-02-17T16:02:03.055Z,71.78
2024-02-17T16:04:35.176Z,71.98
2024-02-17T16:07:07.228Z,71.71
2024-02-17T16:09:39.143Z,71.98
2024-02-17T16:12:11.543Z,72.00
2024-02-17T16:14:43.507Z,71.96
2024-02-17T16:17:15.414Z,72.14
2024-02-17T16:19:45.781Z,71.87
2024-02-17T16:22:18.219Z,71.75
2024-02-17T16:24:50.247Z,71.71
2024-02-17T16:27:22.630Z,71.46
2024-02-17T16:29:54.620Z,71.81
2024-02-17T16:32:24.825Z,71.96
2024-02-17T16:34:58.095Z,72.01
2024-02-17T16:37:30.067Z,72.47
2024-02-17T16:40:00.698Z,72.26
2024-02-17T16:42:34.837Z,72.28
2024-02-17T16:45:09.144Z,72.37
2024-02-17T16:47:41.772Z,72.69
2024-02-17T16:50:14.303Z,72.99
2024-02-17T16:52:46.833Z,73.03
2024-02-17T16:55:19.899Z,73.16
2024-02-17T16:57:52.264Z,73.26
2024-02-17T17:00:25.058Z,73.26
2024-02-17T17:02:57.350Z,73.45
2024-02-17T17:05:32.066Z,73.45
2024-02-17T17:08:04.246Z,73.81
2024-02-17T17:10:36.495Z,73.75
2024-02-17T17:13:08.864Z,73.81
2024-02-17T17:15:40.950Z,74.18
2024-02-17T17:18:13.446Z,74.22
2024-02-17T17:20:49.509Z,74.65
2024-02-17T17:23:23.364Z,74.35
2024-02-17T17:25:58.567Z,74.46
2024-02-17T17:28:30.735Z,74.63
2024-02-17T17:31:02.987Z,74.63
2024-02-17T17:33:35.446Z,74.86
2024-02-17T17:36:09.436Z,74.68
2024-02-17T17:38:42.049Z,74.81
2024-02-17T17:41:14.104Z,74.85
2024-02-17T17:43:46.196Z,75.22
2024-02-17T17:46:18.422Z,75.32
2024-02-17T17:48:52.196Z,75.38
2024-02-17T17:51:24.531Z,75.22
2024-02-17T17:53:56.629Z,75.33
2024-02-17T17:56:29.086Z,75.56
2024-02-17T17:59:01.333Z,75.43
2024-02-17T18:01:33.697Z,75.56
2024-02-17T18:04:06.152Z,75.68
2024-02-17T18:06:41.525Z,75.72
2024-02-17T18:09:14.139Z,75.76
2024-02-17T18:11:46.392Z,75.75
2024-02-17T18:14:18.574Z,75.73
2024-02-17T18:16:50.654Z,75.84
2024-02-17T18:19:23.169Z,75.95
2024-02-17T18:21:55.508Z,75.76
2024-02-17T18:24:27.719Z,75.92
2024-02-17T18:26:59.820Z,75.96
2024-02-17T18:29:31.898Z,76.10
2024-02-17T18:32:03.891Z,76.27
2024-02-17T18:34:35.989Z,76.22
2024-02-17T18:37:08.180Z,76.64
2024-02-17T18:39:42.315Z,76.58
2024-02-17T18:42:14.806Z,76.43
2024-02-17T18:44:47.405Z,76.60
2024-02-17T18:47:19.572Z,76.44
2024-02-17T18:49:52.846Z,76.89
2024-02-17T18:52:29.142Z,76.93
2024-02-17T18:55:01.502Z,77.16
2024-02-17T18:57:33.657Z,77.31
2024-02-17T19:00:06.389Z,77.46
2024-02-17T19:02:39.512Z,77.46
2024-02-17T19:05:12.572Z,77.60
2024-02-17T19:07:45.582Z,77.53
2024-02-17T19:10:21.714Z,77.71
2024-02-17T19:12:54.066Z,77.80
2024-02-17T19:15:29.325Z,77.83
2024-02-17T19:18:01.424Z,77.88
2024-02-17T19:20:34.098Z,77.90
2024-02-17T19:23:08.347Z,77.96
2024-02-17T19:25:42.125Z,78.05
2024-02-17T19:28:13.944Z,78.10
2024-02-17T19:30:44.575Z,78.09
2024-02-17T19:33:18.240Z,78.11
2024-02-17T19:35:51.933Z,78.31
2024-02-17T19:38:25.045Z,78.27
2024-02-17T19:40:57.490Z,78.33
2024-02-17T19:43:31.138Z,78.45
2024-02-17T19:46:04.328Z,78.45
2024-02-17T19:48:36.898Z,78.42
2024-02-17T19:51:08.877Z,78.46
2024-02-17T19:53:41.144Z,78.64
2024-02-17T19:56:11.506Z,78.66
2024-02-17T19:58:43.605Z,78.79
2024-02-17T20:01:16.397Z,78.69
2024-02-17T20:03:49.135Z,78.66
2024-02-17T20:06:21.226Z,78.79
2024-02-17T20:08:53.318Z,78.86
2024-02-17T20:11:26.378Z,78.87
2024-02-17T20:13:58.776Z,78.80
2024-02-17T20:16:30.747Z,78.90
2024-02-17T20:19:02.958Z,79.04
2024-02-17T20:21:38.158Z,79.16
2024-02-17T20:24:10.706Z,79.18
2024-02-17T20:26:42.523Z,79.10
2024-02-17T20:29:14.366Z,79.12
2024-02-17T20:31:46.827Z,79.17
2024-02-17T20:34:19.111Z,79.21
2024-02-17T20:36:53.061Z,79.16
2024-02-17T20:39:25.169Z,79.22
2024-02-17T20:41:58.051Z,79.28
2024-02-17T20:44:36.349Z,79.33
2024-02-17T20:47:09.532Z,79.36
2024-02-17T20:49:41.943Z,79.36
2024-02-17T20:52:14.125Z,79.33
2024-02-17T20:54:44.471Z,79.34
2024-02-17T20:57:18.621Z,79.39
2024-02-17T20:59:49.350Z,79.44
2024-02-17T21:02:22.186Z,79.41
2024-02-17T21:04:54.515Z,79.58
2024-02-17T21:07:26.292Z,79.46
2024-02-17T21:09:58.275Z,79.60
2024-02-17T21:12:30.103Z,79.58
2024-02-17T21:15:01.958Z,79.63
2024-02-17T21:17:35.041Z,79.56
2024-02-17T21:20:10.430Z,79.60
2024-02-17T21:22:42.348Z,79.56
2024-02-17T21:25:12.940Z,79.57
2024-02-17T21:27:44.800Z,79.61
2024-02-17T21:30:17.196Z,79.60
2024-02-17T21:32:49.297Z,79.64
2024-02-17T21:35:21.254Z,79.67
2024-02-17T21:37:53.000Z,79.74
2024-02-17T21:40:25.046Z,79.91
2024-02-17T21:42:56.840Z,79.88
2024-02-17T21:45:29.688Z,79.94
2024-02-17T21:48:02.273Z,79.93
2024-02-17T21:50:34.235Z,80.01
2024-02-17T21:53:06.382Z,80.02
2024-02-17T21:55:38.527Z,80.16
2024-02-17T21:58:10.427Z,80.15
2024-02-17T22:00:41.329Z,80.08
2024-02-17T22:03:11.589Z,79.94
2024-02-17T22:05:43.592Z,80.00
2024-02-17T22:08:15.357Z,79.99
2024-02-17T22:10:47.301Z,80.10
2024-02-17T22:13:18.983Z,80.18
2024-02-17T22:15:50.844Z,80.04
2024-02-17T22:18:21.453Z,80.03
2024-02-17T22:20:53.709Z,80.03
2024-02-17T22:23:25.475Z,80.05
2024-02-17T22:25:57.206Z,80.09
2024-02-17T22:28:33.142Z,80.30
2024-02-17T22:31:28.688Z,80.19
2024-02-17T22:37:56.944Z,80.30
2024-02-17T22:40:30.184Z,80.40
2024-02-17T22:43:02.820Z,80.32
2024-02-17T22:45:35.225Z,80.29
2024-02-17T22:48:10.509Z,80.41
2024-02-17T22:50:42.696Z,80.35
2024-02-17T22:53:15.145Z,80.24
2024-02-17T22:55:47.083Z,80.26
2024-02-17T22:58:17.474Z,80.26
2024-02-17T23:00:50.548Z,80.41
2024-02-17T23:13:49.290Z,80.31
2024-02-17T23:17:36.911Z,80.31
2024-02-17T23:24:22.046Z,80.53
2024-02-17T23:27:10.688Z,80.62
2024-02-17T23:35:06.980Z,80.56
2024-02-17T23:41:05.207Z,80.49
2024-02-17T23:56:23.381Z,80.52
2024-02-17T23:59:13.926Z,80.48
